sensor_id;sensor_type;location;lat;lon;timestamp;temperature;humidity
43695;DHT22;29300;43.560;1.294;2023-01-05T00:01:39;6.80;99.90
43695;DHT22;29300;43.560;1.294;2023-01-05T00:04:05;6.80;99.90
43695;DHT22;29300;43.560;1.294;2023-01-05T00:06:31;6.80;99.90
43695;DHT22;29300;43.560;1.294;2023-01-05T00:08:58;6.90;99.90
43695;DHT22;29300;43.560;1.294;2023-01-05T00:11:25;6.90;99.90
43695;DHT22;29300;43.560;1.294;2023-01-05T00:14:15;7.00;99.90
43695;DHT22;29300;43.560;1.294;2023-01-05T00:16:59;7.00;99.90
43695;DHT22;29300;43.560;1.294;2023-01-05T00:19:44;7.00;99.90
43695;DHT22;29300;43.560;1.294;2023-01-05T00:22:28;6.80;99.90
43695;DHT22;29300;43.560;1.294;2023-01-05T00:27:26;6.90;99.90
43695;DHT22;29300;43.560;1.294;2023-01-05T00:29:52;6.90;99.90
43695;DHT22;29300;43.560;1.294;2023-01-05T00:32:18;6.90;99.90
43695;DHT22;29300;43.560;1.294;2023-01-05T00:34:44;6.80;99.90
43695;DHT22;29300;43.560;1.294;2023-01-05T00:37:10;6.90;99.90
43695;DHT22;29300;43.560;1.294;2023-01-05T00:39:35;6.90;99.90
43695;DHT22;29300;43.560;1.294;2023-01-05T00:42:01;6.90;99.90
43695;DHT22;29300;43.560;1.294;2023-01-05T00:44:26;6.90;99.90
43695;DHT22;29300;43.560;1.294;2023-01-05T00:46:52;6.80;99.90
43695;DHT22;29300;43.560;1.294;2023-01-05T00:49:19;6.90;99.90
43695;DHT22;29300;43.560;1.294;2023-01-05T00:51:45;6.90;99.90
43695;DHT22;29300;43.560;1.294;2023-01-05T00:54:11;6.90;99.90
43695;DHT22;29300;43.560;1.294;2023-01-05T00:56:36;6.90;99.90
43695;DHT22;29300;43.560;1.294;2023-01-05T00:59:02;6.80;99.90
43695;DHT22;29300;43.560;1.294;2023-01-05T01:01:27;6.80;99.90
43695;DHT22;29300;43.560;1.294;2023-01-05T01:03:54;6.90;99.90
43695;DHT22;29300;43.560;1.294;2023-01-05T01:06:20;6.80;99.90
43695;DHT22;29300;43.560;1.294;2023-01-05T01:08:46;6.80;99.90
43695;DHT22;29300;43.560;1.294;2023-01-05T01:11:12;6.80;99.90
43695;DHT22;29300;43.560;1.294;2023-01-05T01:13:37;6.90;99.90
43695;DHT22;29300;43.560;1.294;2023-01-05T01:16:11;6.80;99.90
43695;DHT22;29300;43.560;1.294;2023-01-05T01:18:39;6.90;99.90
43695;DHT22;29300;43.560;1.294;2023-01-05T01:21:05;6.90;99.90
43695;DHT22;29300;43.560;1.294;2023-01-05T01:23:31;6.90;99.90
43695;DHT22;29300;43.560;1.294;2023-01-05T01:26:02;6.80;99.90
43695;DHT22;29300;43.560;1.294;2023-01-05T01:28:28;6.80;99.90
43695;DHT22;29300;43.560;1.294;2023-01-05T01:30:55;6.80;99.90
43695;DHT22;29300;43.560;1.294;2023-01-05T01:33:21;6.80;99.90
43695;DHT22;29300;43.560;1.294;2023-01-05T01:35:47;6.90;99.90
43695;DHT22;29300;43.560;1.294;2023-01-05T01:38:13;6.80;99.90
43695;DHT22;29300;43.560;1.294;2023-01-05T01:40:43;6.80;99.90
43695;DHT22;29300;43.560;1.294;2023-01-05T01:45:38;6.70;99.90
43695;DHT22;29300;43.560;1.294;2023-01-05T01:48:04;6.80;99.90
43695;DHT22;29300;43.560;1.294;2023-01-05T01:50:36;6.80;99.90
43695;DHT22;29300;43.560;1.294;2023-01-05T01:53:12;6.80;99.90
43695;DHT22;29300;43.560;1.294;2023-01-05T01:55:40;6.90;99.90
43695;DHT22;29300;43.560;1.294;2023-01-05T01:58:09;6.80;99.90
43695;DHT22;29300;43.560;1.294;2023-01-05T02:00:40;6.80;99.90
43695;DHT22;29300;43.560;1.294;2023-01-05T02:03:06;6.80;99.90
43695;DHT22;29300;43.560;1.294;2023-01-05T02:05:33;6.70;99.90
43695;DHT22;29300;43.560;1.294;2023-01-05T02:07:59;6.80;99.90
43695;DHT22;29300;43.560;1.294;2023-01-05T02:10:44;6.80;99.90
43695;DHT22;29300;43.560;1.294;2023-01-05T02:16:07;6.80;99.90
43695;DHT22;29300;43.560;1.294;2023-01-05T02:24:49;6.90;99.90
43695;DHT22;29300;43.560;1.294;2023-01-05T02:27:09;6.80;99.90
43695;DHT22;29300;43.560;1.294;2023-01-05T02:40:37;6.90;99.90
43695;DHT22;29300;43.560;1.294;2023-01-05T02:43:05;6.80;99.90
43695;DHT22;29300;43.560;1.294;2023-01-05T02:45:31;6.80;99.90
43695;DHT22;29300;43.560;1.294;2023-01-05T02:47:57;6.90;99.90
43695;DHT22;29300;43.560;1.294;2023-01-05T02:50:30;6.80;99.90
43695;DHT22;29300;43.560;1.294;2023-01-05T02:53:14;6.90;99.90
43695;DHT22;29300;43.560;1.294;2023-01-05T02:58:45;6.80;99.90
43695;DHT22;29300;43.560;1.294;2023-01-05T03:01:22;6.90;99.90
43695;DHT22;29300;43.560;1.294;2023-01-05T03:04:12;7.00;99.90
43695;DHT22;29300;43.560;1.294;2023-01-05T03:06:48;6.90;99.90
43695;DHT22;29300;43.560;1.294;2023-01-05T03:09:23;7.00;99.90
43695;DHT22;29300;43.560;1.294;2023-01-05T03:12:44;7.00;99.90
43695;DHT22;29300;43.560;1.294;2023-01-05T03:15:17;7.00;99.90
43695;DHT22;29300;43.560;1.294;2023-01-05T03:17:53;7.00;99.90
43695;DHT22;29300;43.560;1.294;2023-01-05T03:20:22;7.00;99.90
43695;DHT22;29300;43.560;1.294;2023-01-05T03:22:49;7.00;99.90
43695;DHT22;29300;43.560;1.294;2023-01-05T03:25:37;7.10;99.90
43695;DHT22;29300;43.560;1.294;2023-01-05T03:28:37;7.10;99.90
43695;DHT22;29300;43.560;1.294;2023-01-05T03:34:21;7.10;99.90
43695;DHT22;29300;43.560;1.294;2023-01-05T03:37:14;7.00;99.90
43695;DHT22;29300;43.560;1.294;2023-01-05T03:39:43;7.00;99.90
43695;DHT22;29300;43.560;1.294;2023-01-05T03:42:10;7.00;99.90
43695;DHT22;29300;43.560;1.294;2023-01-05T03:44:40;7.00;99.90
43695;DHT22;29300;43.560;1.294;2023-01-05T03:47:08;7.10;99.90
43695;DHT22;29300;43.560;1.294;2023-01-05T03:49:34;7.10;99.90
43695;DHT22;29300;43.560;1.294;2023-01-05T03:52:00;7.10;99.90
43695;DHT22;29300;43.560;1.294;2023-01-05T03:54:25;7.10;99.90
43695;DHT22;29300;43.560;1.294;2023-01-05T03:56:51;7.10;99.90
43695;DHT22;29300;43.560;1.294;2023-01-05T03:59:17;7.10;99.90
43695;DHT22;29300;43.560;1.294;2023-01-05T04:01:44;7.10;99.90
43695;DHT22;29300;43.560;1.294;2023-01-05T04:04:09;7.10;99.90
43695;DHT22;29300;43.560;1.294;2023-01-05T04:06:35;7.10;99.90
43695;DHT22;29300;43.560;1.294;2023-01-05T04:09:01;7.20;99.90
43695;DHT22;29300;43.560;1.294;2023-01-05T04:11:26;7.10;99.90
43695;DHT22;29300;43.560;1.294;2023-01-05T04:13:52;7.10;99.90
43695;DHT22;29300;43.560;1.294;2023-01-05T04:16:19;7.20;99.90
43695;DHT22;29300;43.560;1.294;2023-01-05T04:18:44;7.20;99.90
43695;DHT22;29300;43.560;1.294;2023-01-05T04:21:10;7.20;99.90
43695;DHT22;29300;43.560;1.294;2023-01-05T04:23:36;7.20;99.90
43695;DHT22;29300;43.560;1.294;2023-01-05T04:26:02;7.20;99.90
43695;DHT22;29300;43.560;1.294;2023-01-05T04:28:28;7.20;99.90
43695;DHT22;29300;43.560;1.294;2023-01-05T04:30:54;7.10;99.90
43695;DHT22;29300;43.560;1.294;2023-01-05T04:33:21;7.20;99.90
43695;DHT22;29300;43.560;1.294;2023-01-05T04:35:47;7.10;99.90
43695;DHT22;29300;43.560;1.294;2023-01-05T04:38:13;7.10;99.90
43695;DHT22;29300;43.560;1.294;2023-01-05T04:40:39;7.20;99.90
43695;DHT22;29300;43.560;1.294;2023-01-05T04:43:05;7.20;99.90
43695;DHT22;29300;43.560;1.294;2023-01-05T04:45:32;7.20;99.90
43695;DHT22;29300;43.560;1.294;2023-01-05T04:47:58;7.20;99.90
43695;DHT22;29300;43.560;1.294;2023-01-05T04:50:24;7.20;99.90
43695;DHT22;29300;43.560;1.294;2023-01-05T04:52:49;7.20;99.90
43695;DHT22;29300;43.560;1.294;2023-01-05T04:55:15;7.20;99.90
43695;DHT22;29300;43.560;1.294;2023-01-05T04:57:41;7.20;99.90
43695;DHT22;29300;43.560;1.294;2023-01-05T05:00:07;7.30;99.90
43695;DHT22;29300;43.560;1.294;2023-01-05T05:02:33;7.30;99.90
43695;DHT22;29300;43.560;1.294;2023-01-05T05:04:59;7.30;99.90
43695;DHT22;29300;43.560;1.294;2023-01-05T05:07:25;7.30;99.90
43695;DHT22;29300;43.560;1.294;2023-01-05T05:09:50;7.20;99.90
43695;DHT22;29300;43.560;1.294;2023-01-05T05:12:16;7.20;99.90
43695;DHT22;29300;43.560;1.294;2023-01-05T05:14:48;7.20;99.90
43695;DHT22;29300;43.560;1.294;2023-01-05T05:17:15;7.20;99.90
43695;DHT22;29300;43.560;1.294;2023-01-05T05:19:41;7.20;99.90
43695;DHT22;29300;43.560;1.294;2023-01-05T05:22:07;7.20;99.90
43695;DHT22;29300;43.560;1.294;2023-01-05T05:24:33;7.20;99.90
43695;DHT22;29300;43.560;1.294;2023-01-05T05:26:58;7.30;99.90
43695;DHT22;29300;43.560;1.294;2023-01-05T05:29:24;7.30;99.90
43695;DHT22;29300;43.560;1.294;2023-01-05T05:31:50;7.30;99.90
43695;DHT22;29300;43.560;1.294;2023-01-05T05:34:16;7.20;99.90
43695;DHT22;29300;43.560;1.294;2023-01-05T05:36:42;7.20;99.90
43695;DHT22;29300;43.560;1.294;2023-01-05T05:39:11;7.10;99.90
43695;DHT22;29300;43.560;1.294;2023-01-05T05:41:37;7.20;99.90
43695;DHT22;29300;43.560;1.294;2023-01-05T05:44:02;7.20;99.90
43695;DHT22;29300;43.560;1.294;2023-01-05T05:46:28;7.20;99.90
43695;DHT22;29300;43.560;1.294;2023-01-05T05:48:55;7.30;99.90
43695;DHT22;29300;43.560;1.294;2023-01-05T05:51:21;7.30;99.90
43695;DHT22;29300;43.560;1.294;2023-01-05T05:53:47;7.10;99.90
43695;DHT22;29300;43.560;1.294;2023-01-05T05:56:12;7.20;99.90
43695;DHT22;29300;43.560;1.294;2023-01-05T05:58:38;7.20;99.90
43695;DHT22;29300;43.560;1.294;2023-01-05T06:01:04;7.30;99.90
43695;DHT22;29300;43.560;1.294;2023-01-05T06:03:29;7.30;99.90
43695;DHT22;29300;43.560;1.294;2023-01-05T06:05:55;7.30;99.90
43695;DHT22;29300;43.560;1.294;2023-01-05T06:08:21;7.30;99.90
43695;DHT22;29300;43.560;1.294;2023-01-05T06:10:48;7.30;99.90
43695;DHT22;29300;43.560;1.294;2023-01-05T06:13:13;7.40;99.90
43695;DHT22;29300;43.560;1.294;2023-01-05T06:15:39;7.20;99.90
43695;DHT22;29300;43.560;1.294;2023-01-05T06:18:05;7.30;99.90
43695;DHT22;29300;43.560;1.294;2023-01-05T06:20:30;7.20;99.90
43695;DHT22;29300;43.560;1.294;2023-01-05T06:22:56;7.30;99.90
43695;DHT22;29300;43.560;1.294;2023-01-05T06:25:22;7.30;99.90
43695;DHT22;29300;43.560;1.294;2023-01-05T06:27:47;7.30;99.90
43695;DHT22;29300;43.560;1.294;2023-01-05T06:30:13;7.30;99.90
43695;DHT22;29300;43.560;1.294;2023-01-05T06:32:39;7.30;99.90
43695;DHT22;29300;43.560;1.294;2023-01-05T06:35:05;7.30;99.90
43695;DHT22;29300;43.560;1.294;2023-01-05T06:37:31;7.20;99.90
43695;DHT22;29300;43.560;1.294;2023-01-05T06:39:56;7.20;99.90
43695;DHT22;29300;43.560;1.294;2023-01-05T06:42:22;7.20;99.90
43695;DHT22;29300;43.560;1.294;2023-01-05T06:44:48;7.30;99.90
43695;DHT22;29300;43.560;1.294;2023-01-05T06:47:13;7.30;99.90
43695;DHT22;29300;43.560;1.294;2023-01-05T06:49:39;7.30;99.90
43695;DHT22;29300;43.560;1.294;2023-01-05T06:52:05;7.30;99.90
43695;DHT22;29300;43.560;1.294;2023-01-05T06:54:30;7.30;99.90
43695;DHT22;29300;43.560;1.294;2023-01-05T06:56:56;7.40;99.90
43695;DHT22;29300;43.560;1.294;2023-01-05T06:59:22;7.40;99.90
43695;DHT22;29300;43.560;1.294;2023-01-05T07:01:47;7.30;99.90
43695;DHT22;29300;43.560;1.294;2023-01-05T07:04:13;7.30;99.90
43695;DHT22;29300;43.560;1.294;2023-01-05T07:06:39;7.20;99.90
43695;DHT22;29300;43.560;1.294;2023-01-05T07:09:04;7.30;99.90
43695;DHT22;29300;43.560;1.294;2023-01-05T07:11:30;7.30;99.90
43695;DHT22;29300;43.560;1.294;2023-01-05T07:13:56;7.30;99.90
43695;DHT22;29300;43.560;1.294;2023-01-05T07:16:21;7.40;99.90
43695;DHT22;29300;43.560;1.294;2023-01-05T07:18:47;7.40;99.90
43695;DHT22;29300;43.560;1.294;2023-01-05T07:21:13;7.40;99.90
43695;DHT22;29300;43.560;1.294;2023-01-05T07:23:38;7.30;99.90
43695;DHT22;29300;43.560;1.294;2023-01-05T07:26:06;7.30;99.90
43695;DHT22;29300;43.560;1.294;2023-01-05T07:28:32;7.40;99.90
43695;DHT22;29300;43.560;1.294;2023-01-05T07:30:58;7.40;99.90
43695;DHT22;29300;43.560;1.294;2023-01-05T07:33:24;7.50;99.90
43695;DHT22;29300;43.560;1.294;2023-01-05T07:35:49;7.50;99.90
43695;DHT22;29300;43.560;1.294;2023-01-05T07:38:15;7.50;99.90
43695;DHT22;29300;43.560;1.294;2023-01-05T07:40:41;7.40;99.90
43695;DHT22;29300;43.560;1.294;2023-01-05T07:43:06;7.40;99.90
43695;DHT22;29300;43.560;1.294;2023-01-05T07:45:32;7.50;99.90
43695;DHT22;29300;43.560;1.294;2023-01-05T07:47:58;7.40;99.90
43695;DHT22;29300;43.560;1.294;2023-01-05T07:50:25;7.40;99.90
43695;DHT22;29300;43.560;1.294;2023-01-05T07:52:50;7.50;99.90
43695;DHT22;29300;43.560;1.294;2023-01-05T07:55:16;7.50;99.90
43695;DHT22;29300;43.560;1.294;2023-01-05T07:57:42;7.50;99.90
43695;DHT22;29300;43.560;1.294;2023-01-05T08:00:09;7.50;99.90
43695;DHT22;29300;43.560;1.294;2023-01-05T08:02:35;7.60;99.90
43695;DHT22;29300;43.560;1.294;2023-01-05T08:05:01;7.60;99.90
43695;DHT22;29300;43.560;1.294;2023-01-05T08:07:27;7.60;99.90
43695;DHT22;29300;43.560;1.294;2023-01-05T08:09:52;7.60;99.90
43695;DHT22;29300;43.560;1.294;2023-01-05T08:12:37;7.60;99.90
43695;DHT22;29300;43.560;1.294;2023-01-05T08:15:22;7.70;99.90
43695;DHT22;29300;43.560;1.294;2023-01-05T08:17:48;7.70;99.90
43695;DHT22;29300;43.560;1.294;2023-01-05T08:20:14;7.70;99.90
43695;DHT22;29300;43.560;1.294;2023-01-05T08:22:39;7.70;99.90
43695;DHT22;29300;43.560;1.294;2023-01-05T08:25:05;7.70;99.90
43695;DHT22;29300;43.560;1.294;2023-01-05T08:27:31;7.70;99.90
43695;DHT22;29300;43.560;1.294;2023-01-05T08:29:58;7.80;99.90
43695;DHT22;29300;43.560;1.294;2023-01-05T08:32:23;7.80;99.90
43695;DHT22;29300;43.560;1.294;2023-01-05T08:34:49;7.80;99.90
43695;DHT22;29300;43.560;1.294;2023-01-05T08:37:15;7.80;99.90
43695;DHT22;29300;43.560;1.294;2023-01-05T08:39:40;7.90;99.90
43695;DHT22;29300;43.560;1.294;2023-01-05T08:42:06;7.90;99.90
43695;DHT22;29300;43.560;1.294;2023-01-05T08:44:32;7.90;99.90
43695;DHT22;29300;43.560;1.294;2023-01-05T08:46:57;8.00;99.90
43695;DHT22;29300;43.560;1.294;2023-01-05T08:49:23;8.00;99.90
43695;DHT22;29300;43.560;1.294;2023-01-05T08:51:49;8.10;99.90
43695;DHT22;29300;43.560;1.294;2023-01-05T08:54:14;8.10;99.90
43695;DHT22;29300;43.560;1.294;2023-01-05T08:56:40;8.10;99.90
43695;DHT22;29300;43.560;1.294;2023-01-05T08:59:11;8.10;99.90
43695;DHT22;29300;43.560;1.294;2023-01-05T09:01:38;8.20;99.90
43695;DHT22;29300;43.560;1.294;2023-01-05T09:04:04;8.20;99.90
43695;DHT22;29300;43.560;1.294;2023-01-05T09:06:29;8.20;99.90
43695;DHT22;29300;43.560;1.294;2023-01-05T09:08:55;8.30;99.90
43695;DHT22;29300;43.560;1.294;2023-01-05T09:11:23;8.30;99.90
43695;DHT22;29300;43.560;1.294;2023-01-05T09:13:51;8.30;99.90
43695;DHT22;29300;43.560;1.294;2023-01-05T09:16:20;8.30;99.90
43695;DHT22;29300;43.560;1.294;2023-01-05T09:18:48;8.40;99.90
43695;DHT22;29300;43.560;1.294;2023-01-05T09:21:14;8.40;99.90
43695;DHT22;29300;43.560;1.294;2023-01-05T09:23:40;8.40;99.90
43695;DHT22;29300;43.560;1.294;2023-01-05T09:26:08;8.50;99.90
43695;DHT22;29300;43.560;1.294;2023-01-05T09:28:34;8.50;99.90
43695;DHT22;29300;43.560;1.294;2023-01-05T09:31:18;8.50;99.90
43695;DHT22;29300;43.560;1.294;2023-01-05T09:33:45;8.50;99.90
43695;DHT22;29300;43.560;1.294;2023-01-05T09:36:12;8.60;99.90
43695;DHT22;29300;43.560;1.294;2023-01-05T09:38:38;8.60;99.90
43695;DHT22;29300;43.560;1.294;2023-01-05T09:43:46;8.70;99.90
43695;DHT22;29300;43.560;1.294;2023-01-05T09:46:16;8.80;99.90
43695;DHT22;29300;43.560;1.294;2023-01-05T09:48:46;8.80;99.90
43695;DHT22;29300;43.560;1.294;2023-01-05T09:51:13;8.90;99.90
43695;DHT22;29300;43.560;1.294;2023-01-05T09:53:40;8.90;99.90
43695;DHT22;29300;43.560;1.294;2023-01-05T09:56:33;8.90;99.90
43695;DHT22;29300;43.560;1.294;2023-01-05T09:59:20;8.90;99.90
43695;DHT22;29300;43.560;1.294;2023-01-05T10:01:50;9.00;99.90
43695;DHT22;29300;43.560;1.294;2023-01-05T10:04:24;9.00;99.90
43695;DHT22;29300;43.560;1.294;2023-01-05T10:07:03;9.00;99.90
43695;DHT22;29300;43.560;1.294;2023-01-05T10:09:36;9.20;99.90
43695;DHT22;29300;43.560;1.294;2023-01-05T10:12:20;9.20;99.90
43695;DHT22;29300;43.560;1.294;2023-01-05T10:15:15;9.20;99.90
43695;DHT22;29300;43.560;1.294;2023-01-05T10:17:41;9.20;99.90
43695;DHT22;29300;43.560;1.294;2023-01-05T10:20:31;9.20;99.90
43695;DHT22;29300;43.560;1.294;2023-01-05T10:23:14;9.30;99.90
43695;DHT22;29300;43.560;1.294;2023-01-05T10:26:06;9.30;99.90
43695;DHT22;29300;43.560;1.294;2023-01-05T10:29:15;9.40;99.90
43695;DHT22;29300;43.560;1.294;2023-01-05T10:37:20;9.80;99.90
43695;DHT22;29300;43.560;1.294;2023-01-05T10:43:17;10.00;99.90
43695;DHT22;29300;43.560;1.294;2023-01-05T10:45:47;10.10;99.90
43695;DHT22;29300;43.560;1.294;2023-01-05T10:48:15;10.00;99.90
43695;DHT22;29300;43.560;1.294;2023-01-05T10:50:44;10.10;99.90
43695;DHT22;29300;43.560;1.294;2023-01-05T10:53:24;10.20;99.90
43695;DHT22;29300;43.560;1.294;2023-01-05T10:56:09;10.20;99.90
43695;DHT22;29300;43.560;1.294;2023-01-05T10:58:41;10.20;99.90
43695;DHT22;29300;43.560;1.294;2023-01-05T11:01:28;10.30;99.90
43695;DHT22;29300;43.560;1.294;2023-01-05T11:04:16;10.40;99.90
43695;DHT22;29300;43.560;1.294;2023-01-05T11:06:42;10.50;99.90
43695;DHT22;29300;43.560;1.294;2023-01-05T11:11:43;10.60;99.90
43695;DHT22;29300;43.560;1.294;2023-01-05T11:14:16;10.70;99.90
43695;DHT22;29300;43.560;1.294;2023-01-05T11:16:50;10.70;99.90
43695;DHT22;29300;43.560;1.294;2023-01-05T11:19:21;10.70;99.90
43695;DHT22;29300;43.560;1.294;2023-01-05T11:21:48;10.70;99.90
43695;DHT22;29300;43.560;1.294;2023-01-05T11:27:03;10.80;99.90
43695;DHT22;29300;43.560;1.294;2023-01-05T11:32:43;11.00;99.90
43695;DHT22;29300;43.560;1.294;2023-01-05T11:35:26;11.10;99.90
43695;DHT22;29300;43.560;1.294;2023-01-05T11:37:54;11.10;99.90
43695;DHT22;29300;43.560;1.294;2023-01-05T11:40:24;11.10;99.90
43695;DHT22;29300;43.560;1.294;2023-01-05T11:42:52;11.20;99.90
43695;DHT22;29300;43.560;1.294;2023-01-05T11:47:51;11.10;99.90
43695;DHT22;29300;43.560;1.294;2023-01-05T11:50:21;11.20;99.90
43695;DHT22;29300;43.560;1.294;2023-01-05T11:52:51;11.10;99.90
43695;DHT22;29300;43.560;1.294;2023-01-05T11:58:24;11.10;99.90
43695;DHT22;29300;43.560;1.294;2023-01-05T12:01:12;11.20;99.90
43695;DHT22;29300;43.560;1.294;2023-01-05T12:17:02;11.20;99.90
43695;DHT22;29300;43.560;1.294;2023-01-05T12:19:57;11.20;99.90
43695;DHT22;29300;43.560;1.294;2023-01-05T12:31:07;11.60;99.90
43695;DHT22;29300;43.560;1.294;2023-01-05T12:37:06;12.00;99.90
43695;DHT22;29300;43.560;1.294;2023-01-05T12:42:19;11.80;99.90
43695;DHT22;29300;43.560;1.294;2023-01-05T12:48:16;11.60;99.90
43695;DHT22;29300;43.560;1.294;2023-01-05T12:50:48;11.60;99.90
43695;DHT22;29300;43.560;1.294;2023-01-05T12:55:49;11.60;99.90
43695;DHT22;29300;43.560;1.294;2023-01-05T12:58:26;11.80;99.90
43695;DHT22;29300;43.560;1.294;2023-01-05T13:00:55;11.80;99.90
43695;DHT22;29300;43.560;1.294;2023-01-05T13:03:33;11.80;99.90
43695;DHT22;29300;43.560;1.294;2023-01-05T13:06:15;12.10;99.90
43695;DHT22;29300;43.560;1.294;2023-01-05T13:08:54;12.00;99.90
43695;DHT22;29300;43.560;1.294;2023-01-05T13:13:59;11.90;99.90
43695;DHT22;29300;43.560;1.294;2023-01-05T13:16:41;12.00;99.90
43695;DHT22;29300;43.560;1.294;2023-01-05T13:21:49;12.20;99.90
43695;DHT22;29300;43.560;1.294;2023-01-05T13:24:24;12.10;99.90
43695;DHT22;29300;43.560;1.294;2023-01-05T13:26:53;12.20;99.90
43695;DHT22;29300;43.560;1.294;2023-01-05T13:29:38;12.30;99.90
43695;DHT22;29300;43.560;1.294;2023-01-05T13:51:59;12.30;99.90
43695;DHT22;29300;43.560;1.294;2023-01-05T13:56:53;12.30;99.90
43695;DHT22;29300;43.560;1.294;2023-01-05T13:59:31;12.30;99.90
43695;DHT22;29300;43.560;1.294;2023-01-05T14:01:58;12.50;99.90
43695;DHT22;29300;43.560;1.294;2023-01-05T14:04:30;12.40;99.90
43695;DHT22;29300;43.560;1.294;2023-01-05T14:07:01;12.40;99.90
43695;DHT22;29300;43.560;1.294;2023-01-05T14:09:31;12.40;99.90
43695;DHT22;29300;43.560;1.294;2023-01-05T14:20:47;12.40;99.90
43695;DHT22;29300;43.560;1.294;2023-01-05T14:25:58;12.40;99.90
43695;DHT22;29300;43.560;1.294;2023-01-05T14:33:57;12.40;99.90
43695;DHT22;29300;43.560;1.294;2023-01-05T14:42:05;12.50;99.90
43695;DHT22;29300;43.560;1.294;2023-01-05T14:44:33;12.50;99.90
43695;DHT22;29300;43.560;1.294;2023-01-05T14:47:01;12.50;99.90
43695;DHT22;29300;43.560;1.294;2023-01-05T14:49:41;12.50;99.90
43695;DHT22;29300;43.560;1.294;2023-01-05T14:55:36;12.40;99.90
43695;DHT22;29300;43.560;1.294;2023-01-05T14:58:04;12.50;99.90
43695;DHT22;29300;43.560;1.294;2023-01-05T15:00:35;12.40;99.90
43695;DHT22;29300;43.560;1.294;2023-01-05T15:05:28;12.40;99.90
43695;DHT22;29300;43.560;1.294;2023-01-05T15:08:10;12.40;99.90
43695;DHT22;29300;43.560;1.294;2023-01-05T15:25:00;12.40;99.90
43695;DHT22;29300;43.560;1.294;2023-01-05T15:30:48;12.40;99.90
43695;DHT22;29300;43.560;1.294;2023-01-05T15:35:48;12.30;99.90
43695;DHT22;29300;43.560;1.294;2023-01-05T15:38:24;12.30;99.90
43695;DHT22;29300;43.560;1.294;2023-01-05T15:41:00;12.30;99.90
43695;DHT22;29300;43.560;1.294;2023-01-05T15:43:31;12.30;99.90
43695;DHT22;29300;43.560;1.294;2023-01-05T15:45:57;12.30;99.90
43695;DHT22;29300;43.560;1.294;2023-01-05T15:48:41;12.30;99.90
43695;DHT22;29300;43.560;1.294;2023-01-05T15:51:08;12.20;99.90
43695;DHT22;29300;43.560;1.294;2023-01-05T15:53:38;12.20;99.90
43695;DHT22;29300;43.560;1.294;2023-01-05T15:56:22;12.20;99.90
43695;DHT22;29300;43.560;1.294;2023-01-05T15:58:50;12.20;99.90
43695;DHT22;29300;43.560;1.294;2023-01-05T16:01:15;12.10;99.90
43695;DHT22;29300;43.560;1.294;2023-01-05T16:03:43;12.10;99.90
43695;DHT22;29300;43.560;1.294;2023-01-05T16:06:25;12.10;99.90
43695;DHT22;29300;43.560;1.294;2023-01-05T16:08:54;12.10;99.90
43695;DHT22;29300;43.560;1.294;2023-01-05T16:11:34;12.00;99.90
43695;DHT22;29300;43.560;1.294;2023-01-05T16:14:05;12.00;99.90
43695;DHT22;29300;43.560;1.294;2023-01-05T16:16:35;12.00;99.90
43695;DHT22;29300;43.560;1.294;2023-01-05T16:19:10;12.00;99.90
43695;DHT22;29300;43.560;1.294;2023-01-05T16:21:47;12.00;99.90
43695;DHT22;29300;43.560;1.294;2023-01-05T16:26:58;11.90;99.90
43695;DHT22;29300;43.560;1.294;2023-01-05T16:31:55;11.80;99.90
43695;DHT22;29300;43.560;1.294;2023-01-05T16:34:22;11.80;99.90
43695;DHT22;29300;43.560;1.294;2023-01-05T16:37:15;11.70;99.90
43695;DHT22;29300;43.560;1.294;2023-01-05T16:39:42;11.70;99.90
43695;DHT22;29300;43.560;1.294;2023-01-05T16:42:21;11.70;99.90
43695;DHT22;29300;43.560;1.294;2023-01-05T16:45:24;11.60;99.90
43695;DHT22;29300;43.560;1.294;2023-01-05T16:47:50;11.50;99.90
43695;DHT22;29300;43.560;1.294;2023-01-05T16:53:11;11.50;99.90
43695;DHT22;29300;43.560;1.294;2023-01-05T16:55:38;11.40;99.90
43695;DHT22;29300;43.560;1.294;2023-01-05T17:03:45;11.30;99.90
43695;DHT22;29300;43.560;1.294;2023-01-05T17:06:28;11.20;99.90
43695;DHT22;29300;43.560;1.294;2023-01-05T17:08:59;11.20;99.90
43695;DHT22;29300;43.560;1.294;2023-01-05T17:11:37;11.20;99.90
43695;DHT22;29300;43.560;1.294;2023-01-05T17:14:03;11.20;99.90
43695;DHT22;29300;43.560;1.294;2023-01-05T17:16:30;11.20;99.90
43695;DHT22;29300;43.560;1.294;2023-01-05T17:18:56;11.10;99.90
43695;DHT22;29300;43.560;1.294;2023-01-05T17:21:27;11.10;99.90
43695;DHT22;29300;43.560;1.294;2023-01-05T17:23:55;11.10;99.90
43695;DHT22;29300;43.560;1.294;2023-01-05T17:26:33;11.00;99.90
43695;DHT22;29300;43.560;1.294;2023-01-05T17:29:01;11.00;99.90
43695;DHT22;29300;43.560;1.294;2023-01-05T17:31:27;11.00;99.90
43695;DHT22;29300;43.560;1.294;2023-01-05T17:33:52;10.90;99.90
43695;DHT22;29300;43.560;1.294;2023-01-05T17:36:21;10.90;99.90
43695;DHT22;29300;43.560;1.294;2023-01-05T17:38:48;10.90;99.90
43695;DHT22;29300;43.560;1.294;2023-01-05T17:41:15;10.90;99.90
43695;DHT22;29300;43.560;1.294;2023-01-05T17:43:40;10.90;99.90
43695;DHT22;29300;43.560;1.294;2023-01-05T17:46:08;10.90;99.90
43695;DHT22;29300;43.560;1.294;2023-01-05T17:48:37;10.90;99.90
43695;DHT22;29300;43.560;1.294;2023-01-05T17:51:03;10.80;99.90
43695;DHT22;29300;43.560;1.294;2023-01-05T17:53:29;10.90;99.90
43695;DHT22;29300;43.560;1.294;2023-01-05T17:55:54;10.80;99.90
43695;DHT22;29300;43.560;1.294;2023-01-05T17:58:20;10.80;99.90
43695;DHT22;29300;43.560;1.294;2023-01-05T18:00:46;10.70;99.90
43695;DHT22;29300;43.560;1.294;2023-01-05T18:03:14;10.60;99.90
43695;DHT22;29300;43.560;1.294;2023-01-05T18:05:42;10.60;99.90
43695;DHT22;29300;43.560;1.294;2023-01-05T18:08:09;10.50;99.90
43695;DHT22;29300;43.560;1.294;2023-01-05T18:10:36;10.50;99.90
43695;DHT22;29300;43.560;1.294;2023-01-05T18:13:02;10.50;99.90
43695;DHT22;29300;43.560;1.294;2023-01-05T18:15:28;10.40;99.90
43695;DHT22;29300;43.560;1.294;2023-01-05T18:17:58;10.40;99.90
43695;DHT22;29300;43.560;1.294;2023-01-05T18:20:24;10.30;99.90
43695;DHT22;29300;43.560;1.294;2023-01-05T18:22:50;10.20;99.90
43695;DHT22;29300;43.560;1.294;2023-01-05T18:25:16;10.10;99.90
43695;DHT22;29300;43.560;1.294;2023-01-05T18:27:42;10.10;99.90
43695;DHT22;29300;43.560;1.294;2023-01-05T18:30:09;10.00;99.90
43695;DHT22;29300;43.560;1.294;2023-01-05T18:32:35;10.00;99.90
43695;DHT22;29300;43.560;1.294;2023-01-05T18:35:01;9.70;99.90
43695;DHT22;29300;43.560;1.294;2023-01-05T18:37:27;9.60;99.90
43695;DHT22;29300;43.560;1.294;2023-01-05T18:39:53;9.60;99.90
43695;DHT22;29300;43.560;1.294;2023-01-05T18:42:18;9.60;99.90
43695;DHT22;29300;43.560;1.294;2023-01-05T18:44:44;9.60;99.90
43695;DHT22;29300;43.560;1.294;2023-01-05T18:47:10;9.50;99.90
43695;DHT22;29300;43.560;1.294;2023-01-05T18:49:35;9.40;99.90
43695;DHT22;29300;43.560;1.294;2023-01-05T18:52:01;9.40;99.90
43695;DHT22;29300;43.560;1.294;2023-01-05T18:54:27;9.30;99.90
43695;DHT22;29300;43.560;1.294;2023-01-05T18:56:52;9.30;99.90